Time;durP1;ratioP1;P1;durP2;ratioP2;P2;SDS_P1;SDS_P2;PMS_P1;PMS_P2;Temp;Humidity;BMP_temperature;BMP_pressure;BME280_temperature;BME280_humidity;BME280_pressure;Samples;Min_cycle;Max_cycle;Signal;HPM_P1;HPM_P2
2022/12/30 00:00:40;;;;;;;16.77;2.75;;;7.50;99.90;;;6.48;100.00;97472.81;4997823;28;20052;-66
2022/12/30 00:03:07;;;;;;;18.20;2.85;;;7.40;99.90;;;6.39;100.00;97480.81;4994636;28;20062;-66
2022/12/30 00:05:34;;;;;;;12.93;2.25;;;7.30;99.90;;;6.35;100.00;97486.94;4994785;28;20054;-65
2022/12/30 00:08:01;;;;;;;15.60;1.85;;;7.30;99.90;;;6.23;100.00;97483.78;4998243;28;20046;-66
2022/12/30 00:10:28;;;;;;;19.83;2.42;;;7.20;99.90;;;6.21;100.00;97489.88;5007757;28;20053;-65
2022/12/30 00:35:21;;;;;;;12.90;1.88;;;;;;;5.83;100.00;97486.50;4998486;28;20054;-65
2022/12/30 00:37:48;;;;;;;16.98;2.10;;;6.60;99.90;;;5.79;100.00;97488.34;4997512;28;20042;-67
2022/12/30 00:40:18;;;;;;;16.80;2.35;;;6.50;99.90;;;5.80;100.00;97490.00;4997613;28;20064;-65
2022/12/30 00:45:30;;;;;;;15.48;2.20;;;6.50;99.90;;;5.60;100.00;97495.66;4993697;28;20057;-65
2022/12/30 00:47:58;;;;;;;23.33;3.08;;;6.40;99.90;;;5.70;100.00;97495.41;4996684;28;20591;-65
2022/12/30 00:56:12;;;;;;;14.63;2.15;;;6.40;99.90;;;5.51;100.00;97531.91;4996459;28;20088;-65
2022/12/30 00:58:39;;;;;;;14.68;2.47;;;;;;;5.43;100.00;97538.97;4997834;28;20565;-68
2022/12/30 01:01:06;;;;;;;15.82;2.15;;;6.30;99.90;;;5.57;100.00;97549.81;4994694;28;20050;-65
2022/12/30 01:03:33;;;;;;;14.75;2.08;;;6.30;99.90;;;5.40;100.00;97557.03;4998079;28;20060;-63
2022/12/30 01:06:09;;;;;;;15.77;2.05;;;6.20;99.90;;;5.42;100.00;97545.81;4996050;28;20054;-65
2022/12/30 01:08:37;;;;;;;13.13;1.90;;;6.10;99.90;;;5.35;100.00;97549.44;4995249;28;20042;-64
2022/12/30 01:11:08;;;;;;;11.93;2.15;;;6.10;99.90;;;5.40;100.00;97557.88;4998228;28;20057;-65
2022/12/30 01:13:36;;;;;;;13.38;1.60;;;6.10;99.90;;;5.45;100.00;97570.66;4997461;28;20042;-65
2022/12/30 01:16:16;;;;;;;15.43;1.80;;;6.10;99.90;;;5.36;100.00;97570.84;4998091;28;20064;-67
2022/12/30 01:18:43;;;;;;;16.27;2.20;;;6.10;99.90;;;5.43;100.00;97585.31;4997844;28;20057;-66
2022/12/30 01:21:10;;;;;;;15.85;2.10;;;6.10;99.90;;;5.40;100.00;97588.78;4994546;28;20054;-65
2022/12/30 01:23:37;;;;;;;17.38;2.22;;;6.10;99.90;;;5.39;100.00;97599.13;4998989;28;20056;-67
2022/12/30 01:26:06;;;;;;;22.10;2.05;;;6.20;99.90;;;5.38;100.00;97605.13;5000764;28;20049;-66
2022/12/30 01:28:36;;;;;;;11.43;1.60;;;6.20;99.90;;;5.37;100.00;97591.44;4997686;28;20050;-67
2022/12/30 01:31:08;;;;;;;13.90;1.92;;;6.20;99.90;;;5.40;100.00;97593.91;4999077;28;20060;-66
2022/12/30 01:33:35;;;;;;;18.15;1.92;;;6.10;99.90;;;5.26;100.00;97602.84;4994656;28;20057;-67
2022/12/30 01:36:04;;;;;;;18.65;2.22;;;6.00;99.90;;;5.16;100.00;97603.03;5000731;28;20054;-67
2022/12/30 01:38:32;;;;;;;19.48;2.53;;;6.00;99.90;;;5.09;100.00;97606.59;5010039;28;20518;-66
2022/12/30 01:40:59;;;;;;;13.80;1.90;;;6.00;99.90;;;5.20;100.00;97608.94;4996529;28;20039;-67
2022/12/30 01:43:59;;;;;;;22.08;2.65;;;6.00;99.90;;;5.19;100.00;97609.84;4997675;28;20881;-66
2022/12/30 01:46:30;;;;;;;9.75;1.83;;;5.90;99.90;;;5.17;100.00;97617.56;4986867;28;20087;-67
2022/12/30 01:48:58;;;;;;;14.98;2.08;;;5.90;99.90;;;5.21;100.00;97626.09;5000326;28;20126;-67
2022/12/30 01:51:31;;;;;;;16.40;2.08;;;5.90;99.90;;;5.23;100.00;97621.75;4997788;28;20050;-67
2022/12/30 01:54:00;;;;;;;12.60;1.92;;;5.90;99.90;;;5.21;100.00;97629.50;4998354;28;20125;-67
2022/12/30 01:56:35;;;;;;;10.43;1.52;;;5.90;99.90;;;5.19;100.00;97636.41;4996805;28;20081;-66
2022/12/30 01:59:18;;;;;;;13.77;1.92;;;5.90;99.90;;;5.17;100.00;97635.59;4995944;28;20048;-67
2022/12/30 02:01:46;;;;;;;17.98;2.13;;;6.00;99.90;;;5.20;100.00;97639.81;4990921;28;20049;-67
2022/12/30 02:04:18;;;;;;;16.15;2.15;;;6.00;99.90;;;5.23;100.00;97644.91;4994871;28;20042;-66
2022/12/30 02:07:05;;;;;;;12.27;1.83;;;6.00;99.90;;;5.15;100.00;97649.34;4993801;28;20049;-67
2022/12/30 02:09:33;;;;;;;25.13;2.42;;;6.00;99.90;;;5.06;100.00;97657.25;4992312;28;20054;-67
2022/12/30 02:12:04;;;;;;;15.00;2.20;;;6.00;99.90;;;5.11;100.00;97663.16;4999823;28;20054;-67
2022/12/30 02:14:36;;;;;;;19.50;2.58;;;6.00;99.90;;;5.06;100.00;97663.25;5002461;28;20057;-67
2022/12/30 02:17:19;;;;;;;16.10;2.25;;;6.00;99.90;;;5.08;100.00;97665.81;5000571;28;20084;-67
2022/12/30 02:20:36;;;;;;;13.40;1.65;;;5.90;99.90;;;5.11;100.00;97671.75;5002344;28;20049;-66
2022/12/30 02:23:39;;;;;;;14.10;1.77;;;5.90;99.90;;;4.90;100.00;97672.97;5006488;28;20050;-66
2022/12/30 02:26:32;;;;;;;14.60;1.88;;;5.80;99.90;;;4.89;100.00;97668.72;5001135;28;20050;-67
2022/12/30 02:29:30;;;;;;;16.75;2.13;;;5.80;99.90;;;4.82;100.00;97677.44;4997630;28;20050;-67
2022/12/30 02:32:25;;;;;;;12.85;2.05;;;5.70;99.90;;;4.84;100.00;97673.09;4997166;28;20571;-67
2022/12/30 02:35:36;;;;;;;13.52;2.60;;;5.70;99.90;;;4.92;100.00;97666.09;5008727;28;20046;-66
2022/12/30 02:39:04;;;;;;;12.82;3.30;;;5.80;99.90;;;4.84;100.00;97678.25;4970996;28;20931;-67
2022/12/30 02:44:56;;;;;;;21.45;5.82;;;5.90;99.90;;;4.96;100.00;97669.47;5011314;28;20043;-66
2022/12/30 02:47:39;;;;;;;27.23;6.82;;;5.90;99.90;;;4.87;100.00;97667.06;5002533;28;20052;-67
2022/12/30 02:53:15;;;;;;;31.55;6.65;;;5.90;99.90;;;4.91;100.00;97648.13;4968067;28;20211;-67
2022/12/30 02:55:42;;;;;;;17.67;5.28;;;5.90;99.90;;;4.91;100.00;97648.97;5000702;28;20050;-66
2022/12/30 02:58:11;;;;;;;17.70;4.75;;;6.00;99.90;;;4.92;100.00;97652.38;4999642;28;20042;-68
2022/12/30 03:04:21;;;;;;;26.13;4.85;;;5.90;99.90;;;4.90;100.00;97629.25;4994503;28;20074;-67
2022/12/30 03:07:18;;;;;;;18.48;4.10;;;5.80;99.90;;;4.87;100.00;97633.63;5000838;28;20444;-67
2022/12/30 03:13:13;;;;;;;19.73;3.97;;;5.90;99.90;;;4.85;100.00;97631.06;4998333;28;20069;-67
2022/12/30 03:15:58;;;;;;;16.88;3.58;;;5.90;99.90;;;5.00;100.00;97635.94;5010468;28;20050;-66
2022/12/30 03:18:28;;;;;;;17.10;3.55;;;5.90;99.90;;;4.94;100.00;97630.06;5011482;28;20057;-67
2022/12/30 03:20:55;;;;;;;17.25;4.25;;;5.80;99.90;;;4.92;100.00;97631.81;4999352;28;20125;-67
2022/12/30 03:28:58;;;;;;;12.65;3.97;;;5.90;99.90;;;5.06;100.00;97644.41;4998337;28;20504;-66
2022/12/30 03:31:25;;;;;;;16.83;3.53;;;5.90;99.90;;;4.99;100.00;97643.66;4997455;28;20476;-66
2022/12/30 03:33:54;;;;;;;16.73;3.38;;;6.00;99.90;;;5.06;100.00;97634.09;5001075;28;20051;-67
2022/12/30 03:36:27;;;;;;;11.77;3.55;;;6.00;99.90;;;5.04;100.00;97626.44;5012561;28;20149;-67
2022/12/30 03:39:14;;;;;;;11.48;3.13;;;5.90;99.90;;;5.15;100.00;97637.34;4997578;28;20046;-66
2022/12/30 03:41:46;;;;;;;22.75;3.58;;;5.90;99.90;;;5.05;100.00;97647.84;5016272;28;20089;-67
2022/12/30 03:44:13;;;;;;;17.60;3.50;;;5.90;99.90;;;5.05;100.00;97642.72;4985370;28;20058;-67
2022/12/30 03:46:42;;;;;;;9.98;2.30;;;6.00;99.90;;;5.10;100.00;97639.16;4987330;28;20038;-67
2022/12/30 03:49:09;;;;;;;16.33;2.53;;;6.00;99.90;;;5.17;100.00;97629.59;4999016;28;20156;-67
2022/12/30 03:51:36;;;;;;;16.00;2.05;;;6.00;99.90;;;5.12;100.00;97636.56;4992982;28;20125;-67
2022/12/30 03:54:03;;;;;;;15.63;2.70;;;6.00;99.90;;;5.05;100.00;97632.44;4996066;28;20126;-66
2022/12/30 03:56:30;;;;;;;13.20;2.42;;;6.00;99.90;;;5.09;100.00;97627.19;4998890;28;20819;-66
2022/12/30 03:58:57;;;;;;;14.77;2.60;;;5.90;99.90;;;4.95;100.00;97627.47;4992432;28;20045;-67
2022/12/30 04:01:23;;;;;;;14.85;2.38;;;5.90;99.90;;;4.92;100.00;97631.81;4995992;28;20698;-67
2022/12/30 04:03:51;;;;;;;11.55;2.13;;;5.90;99.90;;;4.93;100.00;97623.22;4999881;28;20116;-67
2022/12/30 04:06:18;;;;;;;14.25;2.22;;;5.80;99.90;;;5.03;100.00;97632.44;4998930;28;20140;-66
2022/12/30 04:08:45;;;;;;;16.35;2.58;;;5.80;99.90;;;5.09;100.00;97623.78;5000152;28;20053;-67
2022/12/30 04:11:11;;;;;;;12.73;2.35;;;5.90;99.90;;;4.98;100.00;97621.41;4996958;28;20061;-67
2022/12/30 04:13:38;;;;;;;20.35;3.53;;;5.90;99.90;;;4.94;100.00;97630.06;4998144;28;20074;-67
2022/12/30 04:16:06;;;;;;;20.25;2.85;;;5.90;99.90;;;4.97;100.00;97624.84;4997992;28;20057;-67
2022/12/30 04:18:33;;;;;;;16.48;2.95;;;5.80;99.90;;;4.95;100.00;97626.59;4998628;28;20050;-66
2022/12/30 04:21:00;;;;;;;17.77;2.85;;;5.80;99.90;;;4.95;100.00;97630.03;4999962;28;20042;-67
2022/12/30 04:23:27;;;;;;;16.73;2.95;;;5.70;99.90;;;4.84;100.00;97646.56;5001134;28;20046;-65
2022/12/30 04:25:54;;;;;;;13.52;2.55;;;5.70;99.90;;;4.78;100.00;97647.50;4998633;28;20042;-66
2022/12/30 04:28:21;;;;;;;17.00;2.78;;;5.70;99.90;;;4.78;100.00;97637.22;4993427;28;20129;-65
2022/12/30 04:30:50;;;;;;;17.20;2.55;;;5.60;99.90;;;4.76;100.00;97639.78;4995429;28;20048;-66
2022/12/30 04:33:17;;;;;;;16.85;2.90;;;5.60;99.90;;;4.66;100.00;97635.72;4997387;28;20446;-65
2022/12/30 04:35:43;;;;;;;14.60;2.20;;;5.50;99.90;;;4.61;100.00;97637.53;4996826;28;20070;-65
2022/12/30 04:38:10;;;;;;;13.80;2.42;;;5.60;99.90;;;4.70;100.00;97644.19;4998272;28;20555;-65
2022/12/30 04:40:37;;;;;;;13.13;2.15;;;5.60;99.90;;;4.73;100.00;97649.31;4995367;28;20042;-66
2022/12/30 04:43:04;;;;;;;17.60;2.10;;;5.50;99.90;;;4.77;100.00;97646.66;4997005;28;20068;-66
2022/12/30 04:45:31;;;;;;;15.82;2.42;;;5.60;99.90;;;4.74;100.00;97646.69;4995884;28;20058;-65
2022/12/30 04:47:58;;;;;;;14.88;2.75;;;5.70;99.90;;;4.68;100.00;97643.41;4997568;28;20050;-66
2022/12/30 04:50:25;;;;;;;15.80;2.08;;;5.70;99.90;;;4.71;100.00;97651.91;4995837;28;20049;-64
2022/12/30 04:52:52;;;;;;;12.07;1.83;;;5.70;99.90;;;4.86;100.00;97648.22;4994057;28;20057;-65
2022/12/30 04:55:19;;;;;;;13.20;2.35;;;5.70;99.90;;;4.82;100.00;97649.13;4998089;28;20046;-65
2022/12/30 04:57:46;;;;;;;15.93;2.58;;;5.70;99.90;;;4.84;100.00;97641.41;4996382;28;20046;-66
2022/12/30 05:00:13;;;;;;;16.35;2.42;;;5.70;99.90;;;4.80;100.00;97653.47;4995849;28;20056;-66
2022/12/30 05:02:40;;;;;;;9.65;1.50;;;5.80;99.90;;;4.84;100.00;97641.41;4996055;28;20053;-65
2022/12/30 05:05:08;;;;;;;15.52;2.28;;;5.70;99.90;;;4.93;100.00;97654.94;4996241;28;20081;-65
2022/12/30 05:07:35;;;;;;;12.05;1.80;;;5.70;99.90;;;4.94;100.00;97653.19;4995579;28;20046;-66
2022/12/30 05:10:02;;;;;;;9.25;1.77;;;5.80;99.90;;;5.01;100.00;97647.91;4995654;28;20054;-65
2022/12/30 05:12:29;;;;;;;15.70;2.33;;;5.70;99.90;;;4.93;100.00;97648.94;4994445;28;20051;-65
2022/12/30 05:14:55;;;;;;;15.43;2.15;;;5.80;99.90;;;4.97;100.00;97645.41;4995093;28;20064;-66
2022/12/30 05:17:22;;;;;;;17.35;2.45;;;5.70;99.90;;;4.85;100.00;97651.66;4994735;28;20077;-64
2022/12/30 05:19:49;;;;;;;11.75;1.50;;;5.80;99.90;;;4.90;100.00;97648.97;4994570;28;20045;-65
2022/12/30 05:22:16;;;;;;;13.63;2.38;;;5.80;99.90;;;4.98;100.00;97640.25;4994927;28;20454;-65
2022/12/30 05:27:28;;;;;;;13.93;1.95;;;5.80;99.90;;;5.02;100.00;97626.47;4994029;28;20046;-65
2022/12/30 05:29:55;;;;;;;21.67;2.20;;;5.80;99.90;;;5.01;100.00;97629.88;4994448;28;20046;-65
2022/12/30 05:32:22;;;;;;;12.38;2.00;;;5.90;99.90;;;5.07;100.00;97636.66;4996125;28;20054;-65
2022/12/30 05:34:49;;;;;;;11.52;1.67;;;5.80;99.90;;;4.99;100.00;97635.94;4993583;28;20610;-66
2022/12/30 05:37:16;;;;;;;17.70;1.95;;;5.90;99.90;;;4.92;100.00;97640.38;4997566;28;20449;-65
2022/12/30 05:39:43;;;;;;;12.82;1.50;;;5.90;99.90;;;5.04;100.00;97636.72;4994488;28;20046;-66
2022/12/30 05:42:10;;;;;;;7.55;1.48;;;5.90;99.90;;;4.90;100.00;97654.13;4993536;28;20490;-65
2022/12/30 05:44:37;;;;;;;10.27;1.52;;;5.90;99.90;;;5.02;100.00;97643.63;4994803;28;20125;-65
2022/12/30 05:47:04;;;;;;;16.17;2.80;;;5.90;99.90;;;5.02;100.00;97644.47;4992014;28;20412;-65
2022/12/30 05:49:30;;;;;;;12.25;2.17;;;5.90;99.90;;;5.06;100.00;97641.81;4996040;28;20086;-64
2022/12/30 05:51:57;;;;;;;19.67;2.15;;;5.90;99.90;;;5.07;100.00;97646.94;4998503;28;20903;-66
2022/12/30 05:54:24;;;;;;;10.95;1.48;;;5.90;99.90;;;5.10;100.00;97640.91;5002204;28;20054;-64
2022/12/30 05:56:51;;;;;;;14.02;1.55;;;5.90;99.90;;;5.05;100.00;97643.56;5000884;28;20050;-66
2022/12/30 05:59:18;;;;;;;11.57;1.35;;;5.90;99.90;;;5.09;100.00;97645.19;4999298;28;20133;-66
2022/12/30 06:01:45;;;;;;;11.77;2.10;;;5.90;99.90;;;5.16;100.00;97633.91;5001687;28;20488;-65
2022/12/30 06:04:12;;;;;;;10.50;1.33;;;5.90;99.90;;;5.11;100.00;97634.84;4998663;28;20053;-65
2022/12/30 06:06:39;;;;;;;14.93;1.58;;;5.90;99.90;;;5.12;100.00;97631.41;5005144;28;20480;-65
2022/12/30 06:09:07;;;;;;;13.57;1.50;;;6.00;99.90;;;5.15;100.00;97639.06;5006228;28;20050;-66
2022/12/30 06:11:34;;;;;;;11.60;1.40;;;6.00;99.90;;;5.23;100.00;97637.19;5001552;28;20072;-65
2022/12/30 06:14:01;;;;;;;18.35;1.67;;;6.00;99.90;;;5.17;100.00;97635.59;4999376;28;20054;-66
2022/12/30 06:16:28;;;;;;;15.23;1.85;;;6.00;99.90;;;5.22;100.00;97632.91;5001516;28;20057;-66
2022/12/30 06:18:55;;;;;;;15.38;1.70;;;6.00;99.90;;;5.19;100.00;97625.28;5000184;28;20453;-65
2022/12/30 06:21:21;;;;;;;11.43;1.58;;;6.00;99.90;;;5.21;100.00;97621.78;4998055;28;20045;-66
2022/12/30 06:23:48;;;;;;;12.27;1.88;;;6.10;99.90;;;5.27;100.00;97630.25;4998601;28;20053;-66
2022/12/30 06:26:15;;;;;;;7.88;1.25;;;6.00;99.90;;;5.29;100.00;97616.50;4998543;28;20045;-65
2022/12/30 06:28:42;;;;;;;9.48;1.13;;;6.10;99.90;;;5.31;100.00;97619.84;4999854;28;20050;-66
2022/12/30 06:31:09;;;;;;;13.88;1.48;;;6.10;99.90;;;5.33;100.00;97620.69;4995775;28;20053;-65
2022/12/30 06:33:36;;;;;;;11.98;1.35;;;6.20;99.90;;;5.39;100.00;97628.28;4995452;28;20716;-66
2022/12/30 06:36:03;;;;;;;12.38;1.45;;;6.20;99.90;;;5.38;100.00;97624.03;4996220;28;20046;-65
2022/12/30 06:38:30;;;;;;;7.57;1.05;;;6.20;99.90;;;5.48;100.00;97610.97;4997154;28;20167;-66
2022/12/30 06:40:57;;;;;;;10.45;1.50;;;6.20;99.90;;;5.47;100.00;97606.66;4997265;28;20049;-64
2022/12/30 06:43:24;;;;;;;11.48;1.52;;;6.20;99.90;;;5.57;100.00;97597.88;4995879;28;20361;-65
2022/12/30 06:45:51;;;;;;;10.82;1.15;;;6.20;99.90;;;5.50;100.00;97604.06;4999206;28;20481;-66
2022/12/30 06:48:18;;;;;;;10.98;1.15;;;6.30;99.90;;;5.62;100.00;97594.31;4997279;28;20046;-65
2022/12/30 06:50:45;;;;;;;9.20;1.25;;;6.40;99.90;;;5.58;100.00;97586.69;4995910;28;20066;-65
2022/12/30 06:53:12;;;;;;;9.52;1.02;;;6.30;99.90;;;5.59;100.00;97578.09;4995854;28;20084;-65
2022/12/30 06:55:39;;;;;;;12.57;1.20;;;6.40;99.90;;;5.66;100.00;97562.47;4997707;28;20042;-66
2022/12/30 06:58:07;;;;;;;9.85;1.02;;;6.40;99.90;;;5.57;100.00;97554.09;4995899;28;20530;-65
2022/12/30 07:00:35;;;;;;;11.05;1.92;;;6.40;99.90;;;5.61;100.00;97555.72;4994832;28;20060;-65
2022/12/30 07:03:03;;;;;;;13.80;1.63;;;6.50;99.90;;;5.72;100.00;97542.59;4998732;28;20080;-66
2022/12/30 07:05:30;;;;;;;16.02;1.50;;;6.50;99.90;;;5.66;100.00;97543.59;5000470;28;20459;-64
2022/12/30 07:07:57;;;;;;;11.32;1.30;;;6.50;99.90;;;5.73;100.00;97540.00;4996073;28;20156;-65
2022/12/30 07:10:24;;;;;;;15.13;1.55;;;6.50;99.90;;;5.65;100.00;97536.72;4994917;28;20054;-66
2022/12/30 07:12:50;;;;;;;8.18;1.00;;;6.50;99.90;;;5.66;100.00;97533.28;5001344;28;20046;-65
2022/12/30 07:15:17;;;;;;;14.10;2.28;;;6.60;99.90;;;5.71;100.00;97534.03;4994233;28;20038;-65
2022/12/30 07:17:46;;;;;;;11.70;1.73;;;6.50;99.90;;;5.61;100.00;97532.53;4996494;28;20560;-65
2022/12/30 07:20:13;;;;;;;9.75;1.70;;;6.60;99.90;;;5.73;100.00;97523.69;4996775;28;20093;-65
2022/12/30 07:22:40;;;;;;;11.38;1.30;;;6.60;99.90;;;5.71;100.00;97531.44;4997814;28;20046;-65
2022/12/30 07:25:08;;;;;;;9.63;1.70;;;6.50;99.90;;;5.75;100.00;97527.91;4995320;28;20049;-66
2022/12/30 07:27:35;;;;;;;13.07;1.77;;;6.50;99.90;;;5.77;100.00;97526.16;4998173;28;20119;-66
2022/12/30 07:30:04;;;;;;;19.90;2.67;;;6.50;99.90;;;5.73;100.00;97528.84;4995716;28;20053;-65
2022/12/30 07:32:30;;;;;;;11.32;1.65;;;6.60;99.90;;;5.78;100.00;97527.00;4994820;28;20518;-65
2022/12/30 07:34:57;;;;;;;10.80;1.17;;;6.50;99.90;;;5.68;100.00;97528.09;4996218;28;20680;-66
2022/12/30 07:37:24;;;;;;;10.35;1.55;;;6.50;99.90;;;5.78;100.00;97524.44;4994281;28;20679;-64
2022/12/30 07:39:51;;;;;;;14.93;1.50;;;6.50;99.90;;;5.70;100.00;97521.16;4996957;28;20133;-65
2022/12/30 07:42:18;;;;;;;11.70;1.30;;;6.50;99.90;;;5.64;100.00;97510.16;5000312;28;20041;-66
2022/12/30 07:44:45;;;;;;;14.90;1.67;;;6.60;99.90;;;5.71;100.00;97517.72;4993444;28;20060;-65
2022/12/30 07:47:12;;;;;;;10.65;1.48;;;6.60;99.90;;;5.69;100.00;97522.91;4995543;28;20070;-65
2022/12/30 07:49:40;;;;;;;8.40;1.40;;;6.60;99.90;;;5.66;100.00;97520.41;4995982;28;20109;-65
2022/12/30 07:52:07;;;;;;;8.68;1.30;;;6.60;99.90;;;5.80;100.00;97518.34;4997987;28;20042;-65
2022/12/30 07:54:34;;;;;;;10.73;1.42;;;6.60;99.90;;;5.64;100.00;97528.16;4995978;28;20089;-64
2022/12/30 07:57:01;;;;;;;16.02;3.38;;;6.60;99.90;;;5.83;100.00;97513.09;4999974;28;20053;-64
2022/12/30 07:59:28;;;;;;;12.00;1.45;;;6.60;99.90;;;5.78;100.00;97514.97;4998335;28;20053;-65
2022/12/30 08:01:55;;;;;;;10.68;1.58;;;6.60;99.90;;;5.68;100.00;97503.22;5000294;28;20675;-65
2022/12/30 08:04:22;;;;;;;10.38;1.23;;;6.50;99.90;;;5.65;100.00;97496.38;4996096;28;20045;-66
2022/12/30 08:07:09;;;;;;;6.75;1.27;;;6.60;99.90;;;5.67;100.00;97493.78;4995724;28;20420;-64
2022/12/30 08:09:37;;;;;;;10.13;1.30;;;6.60;99.90;;;5.73;100.00;97485.91;4995696;28;20738;-65
2022/12/30 08:12:04;;;;;;;11.23;2.08;;;6.70;99.90;;;5.86;100.00;97482.16;4997257;28;20057;-66
2022/12/30 08:14:31;;;;;;;8.30;1.30;;;6.70;99.90;;;5.79;100.00;97483.19;4994643;28;20456;-65
2022/12/30 08:16:58;;;;;;;9.88;1.30;;;6.60;99.90;;;5.68;100.00;97482.59;5000946;28;20049;-66
2022/12/30 08:19:25;;;;;;;11.07;1.58;;;6.60;99.90;;;5.74;100.00;97471.28;4994991;28;20076;-65
2022/12/30 08:21:51;;;;;;;9.50;1.33;;;6.60;99.90;;;5.78;100.00;97471.19;5001026;28;20176;-64
2022/12/30 08:24:19;;;;;;;7.53;0.98;;;6.50;99.90;;;5.74;100.00;97474.69;4997961;28;20048;-64
2022/12/30 08:26:46;;;;;;;9.65;1.17;;;6.60;99.90;;;5.75;100.00;97467.84;4995682;28;20181;-64
2022/12/30 08:29:13;;;;;;;10.52;1.13;;;6.60;99.90;;;5.82;100.00;97459.91;4997313;28;20054;-65
2022/12/30 08:31:40;;;;;;;9.45;1.50;;;6.70;99.90;;;5.77;100.00;97459.19;4994813;28;20069;-64
2022/12/30 08:34:07;;;;;;;6.70;1.05;;;6.70;99.90;;;5.89;100.00;97440.00;5000183;28;20057;-65
2022/12/30 08:36:34;;;;;;;7.20;1.40;;;6.70;99.90;;;5.81;100.00;97436.75;4993099;28;20096;-65
2022/12/30 08:39:03;;;;;;;8.23;1.35;;;6.80;99.90;;;5.85;100.00;97426.34;4994502;28;20068;-65
2022/12/30 08:41:34;;;;;;;6.13;1.33;;;6.70;99.90;;;6.01;100.00;97424.25;4996330;28;20063;-65
2022/12/30 08:44:03;;;;;;;6.03;0.85;;;6.70;99.90;;;5.92;100.00;97413.31;4987478;28;20927;-65
2022/12/30 08:46:33;;;;;;;6.93;1.05;;;6.80;99.90;;;5.93;100.00;97405.56;4998442;28;20132;-66
2022/12/30 08:49:00;;;;;;;10.88;1.63;;;6.70;99.90;;;5.92;100.00;97403.00;4996950;28;20056;-65
2022/12/30 08:51:29;;;;;;;9.48;1.30;;;6.70;99.90;;;5.96;100.00;97404.66;4994781;28;20058;-65
2022/12/30 08:53:56;;;;;;;12.70;1.55;;;6.70;99.90;;;5.94;100.00;97396.94;4997928;28;20061;-66
2022/12/30 08:56:29;;;;;;;7.38;1.30;;;6.80;99.90;;;5.98;100.00;97401.13;4997101;28;20053;-65
2022/12/30 08:58:57;;;;;;;;;;;6.80;99.90;;;5.95;100.00;97387.47;4995279;28;20042;-66
2022/12/30 09:01:36;;;;;;;7.65;1.33;;;6.80;99.90;;;5.95;100.00;97385.75;4998204;28;19957;-66
2022/12/30 09:04:06;;;;;;;9.25;1.40;;;6.90;99.90;;;6.00;100.00;97388.22;4999524;28;20115;-65
2022/12/30 09:06:37;;;;;;;9.23;1.15;;;6.90;99.90;;;6.03;100.00;97367.53;4995640;28;20058;-66
2022/12/30 09:09:06;;;;;;;5.03;1.10;;;6.90;99.90;;;6.02;100.00;97371.84;4999935;28;20053;-65
2022/12/30 09:11:37;;;;;;;4.82;0.93;;;6.90;99.90;;;6.02;100.00;97363.25;4993027;28;20440;-67
2022/12/30 09:14:07;;;;;;;8.75;1.08;;;6.90;99.90;;;6.11;100.00;97365.56;5010270;28;20780;-65
2022/12/30 09:16:34;;;;;;;5.72;1.90;;;7.00;99.90;;;6.06;100.00;97362.28;4998351;28;20057;-66
2022/12/30 09:19:01;;;;;;;8.77;1.45;;;7.00;99.90;;;6.19;100.00;97363.63;4996562;28;20073;-65
2022/12/30 09:21:28;;;;;;;6.40;1.23;;;7.10;99.90;;;6.18;100.00;97358.50;4999375;28;20496;-65
2022/12/30 09:23:55;;;;;;;6.40;1.30;;;7.20;99.90;;;6.25;100.00;97360.88;4999484;28;20050;-65
2022/12/30 09:26:25;;;;;;;5.25;1.10;;;7.20;99.90;;;6.22;100.00;97350.63;5001773;28;20520;-65
2022/12/30 09:28:52;;;;;;;7.20;0.98;;;7.30;99.90;;;6.21;100.00;97355.84;4998181;28;20056;-65
2022/12/30 09:31:20;;;;;;;4.68;0.80;;;7.30;99.90;;;6.34;100.00;97344.31;4991988;28;20060;-65
2022/12/30 09:33:47;;;;;;;4.55;0.90;;;7.40;99.90;;;6.44;100.00;97325.09;4998822;28;20057;-64
2022/12/30 09:36:14;;;;;;;4.25;0.75;;;7.40;99.90;;;6.60;100.00;97333.19;4996491;28;20049;-65
2022/12/30 09:38:42;;;;;;;12.40;1.27;;;7.40;99.90;;;6.57;100.00;97316.97;4999217;28;20046;-68
2022/12/30 09:41:15;;;;;;;5.57;1.02;;;7.50;99.90;;;6.60;100.00;97309.97;5000934;28;20061;-67
2022/12/30 09:44:03;;;;;;;3.00;0.95;;;7.60;99.90;;;6.79;100.00;97302.50;4995107;28;20398;-67
2022/12/30 09:46:43;;;;;;;6.05;1.00;;;7.60;99.90;;;6.70;100.00;97302.78;4998763;28;20448;-68
2022/12/30 09:49:48;;;;;;;5.07;1.40;;;7.70;99.90;;;6.76;100.00;97304.34;4999938;28;20421;-67
2022/12/30 09:52:23;;;;;;;7.57;1.42;;;7.70;99.90;;;6.81;100.00;97307.63;5006238;28;20057;-68
2022/12/30 09:54:56;;;;;;;7.03;1.50;;;;;;;6.69;100.00;97307.13;4997691;28;20643;-68
2022/12/30 09:57:30;;;;;;;7.03;1.02;;;;;;;6.80;100.00;97305.94;5004313;28;20091;-68
2022/12/30 10:00:17;;;;;;;7.20;1.38;;;7.70;99.90;;;6.86;100.00;97296.25;4997005;28;20052;-67
2022/12/30 10:03:06;;;;;;;6.05;0.93;;;7.80;99.90;;;6.91;100.00;97294.38;5005704;28;20121;-67
2022/12/30 10:06:10;;;;;;;6.78;1.67;;;7.90;99.90;;;6.57;100.00;97286.88;4998070;28;20135;-66
2022/12/30 10:09:01;;;;;;;5.13;1.30;;;7.80;99.90;;;6.73;100.00;97273.47;5012572;28;20041;-68
2022/12/30 10:12:06;;;;;;;5.38;1.58;;;7.70;99.90;;;6.78;100.00;97271.63;4998839;28;20137;-68
2022/12/30 10:14:55;;;;;;;8.30;2.88;;;7.70;99.90;;;6.60;100.00;97271.31;4998727;28;20613;-67
2022/12/30 10:17:22;;;;;;;11.80;3.28;;;7.70;99.90;;;6.55;100.00;97262.88;4998709;28;20046;-67
2022/12/30 10:20:25;;;;;;;10.55;3.58;;;7.70;99.90;;;6.45;100.00;97275.22;5001991;28;20050;-67
2022/12/30 10:23:21;;;;;;;7.90;1.50;;;7.70;99.90;;;6.32;100.00;97270.47;4998477;28;20046;-67
2022/12/30 10:26:16;;;;;;;7.45;1.52;;;7.60;99.90;;;6.46;100.00;97269.16;5001628;28;20081;-67
2022/12/30 10:28:54;;;;;;;9.20;3.80;;;7.60;99.90;;;6.35;100.00;97266.06;5006973;28;20105;-67
2022/12/30 10:31:24;;;;;;;4.28;1.63;;;7.70;99.90;;;6.49;100.00;97265.63;5003444;28;20046;-67
2022/12/30 10:33:57;;;;;;;3.90;0.77;;;7.60;99.90;;;6.42;100.00;97283.03;5000417;28;20042;-68
2022/12/30 10:36:44;;;;;;;5.22;1.52;;;7.60;99.90;;;6.59;100.00;97254.16;4994976;28;20089;-68
2022/12/30 10:39:20;;;;;;;3.25;0.80;;;7.70;99.90;;;6.63;100.00;97265.19;4999167;28;20054;-68
2022/12/30 10:42:14;;;;;;;3.78;0.90;;;7.70;99.90;;;6.63;100.00;97260.03;4993924;28;20863;-68
2022/12/30 10:45:11;;;;;;;5.75;2.38;;;7.70;99.90;;;6.33;100.00;97264.44;4992808;28;20515;-66
2022/12/30 10:48:18;;;;;;;5.43;0.98;;;7.80;99.90;;;6.58;100.00;97239.56;4998056;28;20074;-65
2022/12/30 10:50:48;;;;;;;4.68;1.45;;;7.70;99.90;;;6.45;100.00;97254.59;5000770;28;20050;-66
2022/12/30 10:53:19;;;;;;;6.13;1.73;;;7.70;99.90;;;6.34;100.00;97250.63;4992216;28;20092;-65
2022/12/30 10:55:53;;;;;;;4.05;1.10;;;7.70;99.90;;;6.63;100.00;97244.56;4996815;28;20046;-65
2022/12/30 10:58:33;;;;;;;6.10;1.13;;;7.80;99.90;;;6.74;100.00;97234.75;4995622;28;20068;-65
2022/12/30 11:01:01;;;;;;;5.50;1.30;;;7.80;99.90;;;6.90;100.00;97222.19;5009224;28;20457;-68
2022/12/30 11:03:31;;;;;;;4.05;1.13;;;7.90;99.90;;;6.72;100.00;97215.91;4996841;28;20073;-65
2022/12/30 11:06:15;;;;;;;8.05;1.15;;;7.80;99.90;;;6.62;100.00;97215.38;4997791;28;20042;-65
2022/12/30 11:08:43;;;;;;;3.92;0.90;;;7.80;99.90;;;6.72;100.00;97212.47;4999658;28;20052;-65
2022/12/30 11:11:10;;;;;;;3.58;1.00;;;7.80;99.90;;;6.81;100.00;97204.44;4991513;28;20057;-65
2022/12/30 11:16:27;;;;;;;3.92;0.80;;;7.80;99.90;;;6.77;100.00;97174.47;5002919;28;20046;-65
2022/12/30 11:19:00;;;;;;;6.00;0.77;;;7.80;99.90;;;6.82;100.00;97170.00;4995618;28;20138;-66
2022/12/30 11:21:34;;;;;;;4.03;0.80;;;7.70;99.90;;;6.81;100.00;97168.31;4995517;28;20471;-65
2022/12/30 11:24:03;;;;;;;4.80;1.17;;;7.70;99.90;;;6.76;100.00;97168.47;4995526;28;20053;-66
2022/12/30 11:26:33;;;;;;;5.13;1.00;;;7.70;99.90;;;6.91;100.00;97165.38;4987268;28;20129;-65
2022/12/30 11:29:09;;;;;;;4.22;0.70;;;7.70;99.90;;;6.64;100.00;97174.06;4997880;28;20050;-67
2022/12/30 11:31:45;;;;;;;4.15;0.88;;;7.80;99.90;;;6.81;100.00;97161.41;4999722;28;20046;-67
2022/12/30 11:34:33;;;;;;;2.67;0.70;;;7.80;99.90;;;6.81;100.00;97150.25;4997005;28;20224;-68
2022/12/30 11:37:24;;;;;;;6.57;0.90;;;7.80;99.90;;;6.85;100.00;97144.13;4997892;28;20141;-67